Cuyahoga Heights, Ohio
Current Conditions -  °F | °C
As of 9:53 AM on Thursday 18 Dec 2014 (Local Time) from KBKL Reporting Station
Overcast Overcast  
Wind Chill: 22°   Ceiling: 2100
Heat Index: 31°   Visibility: 10mi
Dew Point: 23°   Wind: 12mph
Humidity: 72%   Direction: 220°SW
Pressure: 30.2"   Gusts: NA
Location:  41.4062°N, 81.6149°W
Report Text: KBKL 181453Z 22010KT 10SM OVC021 M01/M05 A3020 RMK AO2 SLP235 T10061050 53005
Loading
Personal Weather Stations






























Interactive Weather Map New forecast layout! Learn more

10-Day Weather Forecast

Advertisements
Track Severe Weather on mobile